sensor_id;sensor_type;location;lat;lon;timestamp;P1;durP1;ratioP1;P2;durP2;ratioP2
5999;SDS011;3028;49.468;7.694;2022-08-01T00:00:52;1.98;;;1.40;;
5999;SDS011;3028;49.468;7.694;2022-08-01T00:02:53;1.40;;;1.30;;
5999;SDS011;3028;49.468;7.694;2022-08-01T00:04:56;1.20;;;1.10;;
5999;SDS011;3028;49.468;7.694;2022-08-01T00:07:00;1.73;;;1.33;;
5999;SDS011;3028;49.468;7.694;2022-08-01T00:09:02;1.33;;;1.15;;
5999;SDS011;3028;49.468;7.694;2022-08-01T00:11:04;1.70;;;1.10;;
5999;SDS011;3028;49.468;7.694;2022-08-01T00:13:06;1.35;;;1.25;;
5999;SDS011;3028;49.468;7.694;2022-08-01T00:15:08;2.00;;;1.30;;
5999;SDS011;3028;49.468;7.694;2022-08-01T00:17:11;4.47;;;1.42;;
5999;SDS011;3028;49.468;7.694;2022-08-01T00:19:12;1.20;;;1.10;;
5999;SDS011;3028;49.468;7.694;2022-08-01T00:21:14;1.23;;;1.00;;
5999;SDS011;3028;49.468;7.694;2022-08-01T00:23:16;1.05;;;1.02;;
5999;SDS011;3028;49.468;7.694;2022-08-01T00:25:18;1.17;;;1.08;;
5999;SDS011;3028;49.468;7.694;2022-08-01T00:27:20;1.30;;;1.20;;
5999;SDS011;3028;49.468;7.694;2022-08-01T00:29:21;0.93;;;0.90;;
5999;SDS011;3028;49.468;7.694;2022-08-01T00:31:43;2.92;;;1.10;;
5999;SDS011;3028;49.468;7.694;2022-08-01T00:33:45;2.15;;;1.10;;
5999;SDS011;3028;49.468;7.694;2022-08-01T00:35:47;0.88;;;0.88;;
5999;SDS011;3028;49.468;7.694;2022-08-01T00:37:48;0.95;;;0.85;;
5999;SDS011;3028;49.468;7.694;2022-08-01T00:39:50;2.10;;;1.20;;
5999;SDS011;3028;49.468;7.694;2022-08-01T00:41:52;1.35;;;1.20;;
5999;SDS011;3028;49.468;7.694;2022-08-01T00:44:03;1.85;;;1.25;;
5999;SDS011;3028;49.468;7.694;2022-08-01T00:46:05;1.27;;;1.08;;
5999;SDS011;3028;49.468;7.694;2022-08-01T00:48:07;0.80;;;0.80;;
5999;SDS011;3028;49.468;7.694;2022-08-01T00:50:09;2.00;;;1.00;;
5999;SDS011;3028;49.468;7.694;2022-08-01T00:52:11;0.85;;;0.85;;
5999;SDS011;3028;49.468;7.694;2022-08-01T00:54:14;1.40;;;0.90;;
5999;SDS011;3028;49.468;7.694;2022-08-01T00:56:17;1.10;;;1.00;;
5999;SDS011;3028;49.468;7.694;2022-08-01T00:58:20;3.30;;;1.05;;
5999;SDS011;3028;49.468;7.694;2022-08-01T01:00:24;1.15;;;0.90;;
5999;SDS011;3028;49.468;7.694;2022-08-01T01:02:27;1.92;;;0.98;;
5999;SDS011;3028;49.468;7.694;2022-08-01T01:04:29;1.60;;;1.15;;
5999;SDS011;3028;49.468;7.694;2022-08-01T01:08:43;1.20;;;1.10;;
5999;SDS011;3028;49.468;7.694;2022-08-01T01:15:35;2.17;;;1.10;;
5999;SDS011;3028;49.468;7.694;2022-08-01T01:17:45;1.50;;;1.40;;
5999;SDS011;3028;49.468;7.694;2022-08-01T01:19:57;3.13;;;1.15;;
5999;SDS011;3028;49.468;7.694;2022-08-01T01:24:28;1.10;;;0.95;;
5999;SDS011;3028;49.468;7.694;2022-08-01T01:26:43;2.17;;;1.20;;
5999;SDS011;3028;49.468;7.694;2022-08-01T01:30:53;1.75;;;1.17;;
5999;SDS011;3028;49.468;7.694;2022-08-01T01:32:58;2.30;;;1.00;;
5999;SDS011;3028;49.468;7.694;2022-08-01T01:35:04;1.88;;;1.40;;
5999;SDS011;3028;49.468;7.694;2022-08-01T01:37:09;1.15;;;1.00;;
5999;SDS011;3028;49.468;7.694;2022-08-01T01:39:13;0.82;;;0.82;;
5999;SDS011;3028;49.468;7.694;2022-08-01T01:41:18;1.00;;;0.90;;
5999;SDS011;3028;49.468;7.694;2022-08-01T01:43:20;3.10;;;0.98;;
5999;SDS011;3028;49.468;7.694;2022-08-01T01:45:33;1.77;;;0.88;;
5999;SDS011;3028;49.468;7.694;2022-08-01T01:47:36;1.23;;;1.00;;
5999;SDS011;3028;49.468;7.694;2022-08-01T01:49:40;1.55;;;1.42;;
5999;SDS011;3028;49.468;7.694;2022-08-01T01:51:42;3.20;;;0.90;;
5999;SDS011;3028;49.468;7.694;2022-08-01T01:54:03;1.77;;;1.30;;
5999;SDS011;3028;49.468;7.694;2022-08-01T01:56:06;1.00;;;1.00;;
5999;SDS011;3028;49.468;7.694;2022-08-01T01:58:07;1.25;;;1.02;;
5999;SDS011;3028;49.468;7.694;2022-08-01T02:00:12;1.33;;;1.23;;
5999;SDS011;3028;49.468;7.694;2022-08-01T02:02:14;0.93;;;0.82;;
5999;SDS011;3028;49.468;7.694;2022-08-01T02:04:18;1.30;;;1.20;;
5999;SDS011;3028;49.468;7.694;2022-08-01T02:06:22;0.80;;;0.80;;
5999;SDS011;3028;49.468;7.694;2022-08-01T02:08:25;1.90;;;1.00;;
5999;SDS011;3028;49.468;7.694;2022-08-01T02:10:31;1.67;;;0.90;;
5999;SDS011;3028;49.468;7.694;2022-08-01T02:12:34;6.82;;;1.23;;
5999;SDS011;3028;49.468;7.694;2022-08-01T02:14:38;1.08;;;0.90;;
5999;SDS011;3028;49.468;7.694;2022-08-01T02:16:43;2.55;;;1.30;;
5999;SDS011;3028;49.468;7.694;2022-08-01T02:18:46;1.05;;;0.93;;
5999;SDS011;3028;49.468;7.694;2022-08-01T02:20:48;1.38;;;1.27;;
5999;SDS011;3028;49.468;7.694;2022-08-01T02:22:57;1.38;;;1.00;;
5999;SDS011;3028;49.468;7.694;2022-08-01T02:25:03;0.80;;;0.80;;
5999;SDS011;3028;49.468;7.694;2022-08-01T02:27:09;1.40;;;1.10;;
5999;SDS011;3028;49.468;7.694;2022-08-01T02:29:15;1.30;;;1.00;;
5999;SDS011;3028;49.468;7.694;2022-08-01T02:31:20;1.13;;;1.02;;
5999;SDS011;3028;49.468;7.694;2022-08-01T02:33:23;1.10;;;1.05;;
5999;SDS011;3028;49.468;7.694;2022-08-01T02:35:27;0.70;;;0.70;;
5999;SDS011;3028;49.468;7.694;2022-08-01T02:37:31;2.10;;;1.83;;
5999;SDS011;3028;49.468;7.694;2022-08-01T02:39:35;0.82;;;0.82;;
5999;SDS011;3028;49.468;7.694;2022-08-01T02:41:40;1.58;;;1.00;;
5999;SDS011;3028;49.468;7.694;2022-08-01T02:43:46;2.00;;;1.23;;
5999;SDS011;3028;49.468;7.694;2022-08-01T02:45:54;0.98;;;0.90;;
5999;SDS011;3028;49.468;7.694;2022-08-01T02:47:59;3.03;;;1.10;;
5999;SDS011;3028;49.468;7.694;2022-08-01T02:50:03;1.30;;;0.90;;
5999;SDS011;3028;49.468;7.694;2022-08-01T02:52:10;1.08;;;1.00;;
5999;SDS011;3028;49.468;7.694;2022-08-01T02:54:14;1.27;;;1.13;;
5999;SDS011;3028;49.468;7.694;2022-08-01T02:56:17;1.92;;;0.98;;
5999;SDS011;3028;49.468;7.694;2022-08-01T02:58:20;1.00;;;0.90;;
5999;SDS011;3028;49.468;7.694;2022-08-01T03:00:29;1.17;;;1.08;;
5999;SDS011;3028;49.468;7.694;2022-08-01T03:02:32;2.22;;;1.10;;
5999;SDS011;3028;49.468;7.694;2022-08-01T03:04:35;1.85;;;0.90;;
5999;SDS011;3028;49.468;7.694;2022-08-01T03:06:38;1.63;;;1.17;;
5999;SDS011;3028;49.468;7.694;2022-08-01T03:08:45;2.05;;;1.08;;
5999;SDS011;3028;49.468;7.694;2022-08-01T03:10:48;1.40;;;0.90;;
5999;SDS011;3028;49.468;7.694;2022-08-01T03:12:50;1.42;;;0.95;;
5999;SDS011;3028;49.468;7.694;2022-08-01T03:14:54;1.30;;;1.20;;
5999;SDS011;3028;49.468;7.694;2022-08-01T03:16:56;1.17;;;1.10;;
5999;SDS011;3028;49.468;7.694;2022-08-01T03:18:59;0.93;;;0.93;;
5999;SDS011;3028;49.468;7.694;2022-08-01T03:21:02;1.40;;;1.05;;
5999;SDS011;3028;49.468;7.694;2022-08-01T03:23:05;4.75;;;1.10;;
5999;SDS011;3028;49.468;7.694;2022-08-01T03:25:09;1.23;;;1.13;;
5999;SDS011;3028;49.468;7.694;2022-08-01T03:27:12;1.10;;;1.00;;
5999;SDS011;3028;49.468;7.694;2022-08-01T03:29:16;2.00;;;0.98;;
5999;SDS011;3028;49.468;7.694;2022-08-01T03:31:18;3.05;;;1.20;;
5999;SDS011;3028;49.468;7.694;2022-08-01T03:33:20;7.13;;;1.08;;
5999;SDS011;3028;49.468;7.694;2022-08-01T03:35:23;1.10;;;1.00;;
5999;SDS011;3028;49.468;7.694;2022-08-01T03:37:38;1.35;;;0.90;;
5999;SDS011;3028;49.468;7.694;2022-08-01T03:42:36;1.67;;;0.80;;
5999;SDS011;3028;49.468;7.694;2022-08-01T03:44:39;1.10;;;0.90;;
5999;SDS011;3028;49.468;7.694;2022-08-01T03:46:43;1.50;;;1.00;;
5999;SDS011;3028;49.468;7.694;2022-08-01T03:48:48;1.20;;;1.05;;
5999;SDS011;3028;49.468;7.694;2022-08-01T03:50:51;1.15;;;1.05;;
5999;SDS011;3028;49.468;7.694;2022-08-01T03:52:53;0.90;;;0.90;;
5999;SDS011;3028;49.468;7.694;2022-08-01T03:54:56;1.08;;;0.98;;
5999;SDS011;3028;49.468;7.694;2022-08-01T03:57:00;1.00;;;0.80;;
5999;SDS011;3028;49.468;7.694;2022-08-01T03:59:04;1.73;;;1.00;;
5999;SDS011;3028;49.468;7.694;2022-08-01T04:01:06;1.35;;;0.90;;
5999;SDS011;3028;49.468;7.694;2022-08-01T04:03:16;2.15;;;1.02;;
5999;SDS011;3028;49.468;7.694;2022-08-01T04:05:18;2.58;;;0.98;;
5999;SDS011;3028;49.468;7.694;2022-08-01T04:07:28;1.20;;;1.10;;
5999;SDS011;3028;49.468;7.694;2022-08-01T04:09:31;1.10;;;1.00;;
5999;SDS011;3028;49.468;7.694;2022-08-01T04:11:32;3.65;;;1.08;;
5999;SDS011;3028;49.468;7.694;2022-08-01T04:13:34;1.15;;;1.02;;
5999;SDS011;3028;49.468;7.694;2022-08-01T04:15:37;1.05;;;0.90;;
5999;SDS011;3028;49.468;7.694;2022-08-01T04:17:38;1.20;;;1.10;;
5999;SDS011;3028;49.468;7.694;2022-08-01T04:19:40;1.13;;;1.05;;
5999;SDS011;3028;49.468;7.694;2022-08-01T04:21:42;1.15;;;0.98;;
5999;SDS011;3028;49.468;7.694;2022-08-01T04:23:44;1.73;;;1.10;;
5999;SDS011;3028;49.468;7.694;2022-08-01T04:25:51;1.33;;;1.23;;
5999;SDS011;3028;49.468;7.694;2022-08-01T04:27:54;3.80;;;1.20;;
5999;SDS011;3028;49.468;7.694;2022-08-01T04:29:56;1.27;;;1.17;;
5999;SDS011;3028;49.468;7.694;2022-08-01T04:32:00;5.78;;;1.20;;
5999;SDS011;3028;49.468;7.694;2022-08-01T04:34:04;15.13;;;1.80;;
5999;SDS011;3028;49.468;7.694;2022-08-01T04:36:07;7.40;;;1.80;;
5999;SDS011;3028;49.468;7.694;2022-08-01T04:38:12;9.63;;;1.70;;
5999;SDS011;3028;49.468;7.694;2022-08-01T04:40:15;7.18;;;1.83;;
5999;SDS011;3028;49.468;7.694;2022-08-01T04:42:17;5.40;;;1.70;;
5999;SDS011;3028;49.468;7.694;2022-08-01T04:44:33;5.80;;;1.20;;
5999;SDS011;3028;49.468;7.694;2022-08-01T04:46:35;1.98;;;1.10;;
5999;SDS011;3028;49.468;7.694;2022-08-01T04:48:38;5.60;;;2.03;;
5999;SDS011;3028;49.468;7.694;2022-08-01T04:50:40;1.58;;;1.35;;
5999;SDS011;3028;49.468;7.694;2022-08-01T04:52:43;1.63;;;1.40;;
5999;SDS011;3028;49.468;7.694;2022-08-01T04:54:44;1.08;;;1.05;;
5999;SDS011;3028;49.468;7.694;2022-08-01T04:56:47;1.30;;;1.20;;
5999;SDS011;3028;49.468;7.694;2022-08-01T04:58:51;2.85;;;1.25;;
5999;SDS011;3028;49.468;7.694;2022-08-01T05:01:20;1.42;;;1.20;;
5999;SDS011;3028;49.468;7.694;2022-08-01T05:03:21;1.08;;;1.00;;
5999;SDS011;3028;49.468;7.694;2022-08-01T05:05:24;1.40;;;1.23;;
5999;SDS011;3028;49.468;7.694;2022-08-01T05:07:27;1.80;;;1.50;;
5999;SDS011;3028;49.468;7.694;2022-08-01T05:09:29;1.30;;;1.20;;
5999;SDS011;3028;49.468;7.694;2022-08-01T05:11:32;1.80;;;1.35;;
5999;SDS011;3028;49.468;7.694;2022-08-01T05:13:33;1.63;;;1.52;;
5999;SDS011;3028;49.468;7.694;2022-08-01T05:15:35;2.70;;;1.60;;
5999;SDS011;3028;49.468;7.694;2022-08-01T05:17:40;1.40;;;1.30;;
5999;SDS011;3028;49.468;7.694;2022-08-01T05:19:43;12.20;;;1.30;;
5999;SDS011;3028;49.468;7.694;2022-08-01T05:21:45;1.75;;;1.63;;
5999;SDS011;3028;49.468;7.694;2022-08-01T05:23:47;1.48;;;1.38;;
5999;SDS011;3028;49.468;7.694;2022-08-01T05:25:50;1.50;;;1.40;;
5999;SDS011;3028;49.468;7.694;2022-08-01T05:27:58;1.10;;;1.00;;
5999;SDS011;3028;49.468;7.694;2022-08-01T05:30:00;1.42;;;1.33;;
5999;SDS011;3028;49.468;7.694;2022-08-01T05:32:02;2.45;;;1.48;;
5999;SDS011;3028;49.468;7.694;2022-08-01T05:34:04;1.45;;;1.20;;
5999;SDS011;3028;49.468;7.694;2022-08-01T05:36:15;2.08;;;1.45;;
5999;SDS011;3028;49.468;7.694;2022-08-01T05:38:16;1.50;;;1.10;;
5999;SDS011;3028;49.468;7.694;2022-08-01T05:40:18;1.52;;;1.08;;
5999;SDS011;3028;49.468;7.694;2022-08-01T05:42:20;1.20;;;1.10;;
5999;SDS011;3028;49.468;7.694;2022-08-01T05:44:22;3.42;;;1.00;;
5999;SDS011;3028;49.468;7.694;2022-08-01T05:46:23;1.58;;;1.00;;
5999;SDS011;3028;49.468;7.694;2022-08-01T05:48:27;1.08;;;0.98;;
5999;SDS011;3028;49.468;7.694;2022-08-01T05:50:29;1.45;;;0.90;;
5999;SDS011;3028;49.468;7.694;2022-08-01T05:52:31;1.05;;;0.90;;
5999;SDS011;3028;49.468;7.694;2022-08-01T05:54:33;0.95;;;0.90;;
5999;SDS011;3028;49.468;7.694;2022-08-01T05:56:35;1.45;;;1.00;;
5999;SDS011;3028;49.468;7.694;2022-08-01T05:58:36;1.10;;;1.00;;
5999;SDS011;3028;49.468;7.694;2022-08-01T06:00:40;1.80;;;0.88;;
5999;SDS011;3028;49.468;7.694;2022-08-01T06:02:42;0.85;;;0.80;;
5999;SDS011;3028;49.468;7.694;2022-08-01T06:04:44;0.73;;;0.73;;
5999;SDS011;3028;49.468;7.694;2022-08-01T06:06:46;5.13;;;0.90;;
5999;SDS011;3028;49.468;7.694;2022-08-01T06:08:48;0.95;;;0.95;;
5999;SDS011;3028;49.468;7.694;2022-08-01T06:10:51;0.90;;;0.90;;
5999;SDS011;3028;49.468;7.694;2022-08-01T06:12:53;1.10;;;1.00;;
5999;SDS011;3028;49.468;7.694;2022-08-01T06:14:55;0.80;;;0.77;;
5999;SDS011;3028;49.468;7.694;2022-08-01T06:16:57;0.75;;;0.75;;
5999;SDS011;3028;49.468;7.694;2022-08-01T06:18:59;1.42;;;0.85;;
5999;SDS011;3028;49.468;7.694;2022-08-01T06:21:01;0.60;;;0.60;;
5999;SDS011;3028;49.468;7.694;2022-08-01T06:23:03;0.65;;;0.65;;
5999;SDS011;3028;49.468;7.694;2022-08-01T06:25:24;1.67;;;0.70;;
5999;SDS011;3028;49.468;7.694;2022-08-01T06:27:26;1.02;;;0.82;;
5999;SDS011;3028;49.468;7.694;2022-08-01T06:29:29;0.93;;;0.70;;
5999;SDS011;3028;49.468;7.694;2022-08-01T06:31:32;1.63;;;0.60;;
5999;SDS011;3028;49.468;7.694;2022-08-01T06:33:34;0.70;;;0.70;;
5999;SDS011;3028;49.468;7.694;2022-08-01T06:35:36;1.08;;;0.77;;
5999;SDS011;3028;49.468;7.694;2022-08-01T06:37:38;1.00;;;0.68;;
5999;SDS011;3028;49.468;7.694;2022-08-01T06:39:39;0.90;;;0.70;;
5999;SDS011;3028;49.468;7.694;2022-08-01T06:41:41;1.60;;;0.70;;
5999;SDS011;3028;49.468;7.694;2022-08-01T06:43:43;2.72;;;0.70;;
5999;SDS011;3028;49.468;7.694;2022-08-01T06:45:45;0.75;;;0.63;;
5999;SDS011;3028;49.468;7.694;2022-08-01T06:47:47;1.17;;;0.75;;
5999;SDS011;3028;49.468;7.694;2022-08-01T06:49:51;0.75;;;0.65;;
5999;SDS011;3028;49.468;7.694;2022-08-01T06:51:52;2.60;;;0.85;;
5999;SDS011;3028;49.468;7.694;2022-08-01T06:53:54;0.73;;;0.65;;
5999;SDS011;3028;49.468;7.694;2022-08-01T06:55:56;1.17;;;1.08;;
5999;SDS011;3028;49.468;7.694;2022-08-01T06:58:01;2.88;;;1.00;;
5999;SDS011;3028;49.468;7.694;2022-08-01T07:00:04;1.23;;;0.77;;
5999;SDS011;3028;49.468;7.694;2022-08-01T07:02:12;1.60;;;0.82;;
5999;SDS011;3028;49.468;7.694;2022-08-01T07:04:17;0.85;;;0.80;;
5999;SDS011;3028;49.468;7.694;2022-08-01T07:06:19;0.80;;;0.60;;
5999;SDS011;3028;49.468;7.694;2022-08-01T07:08:24;1.50;;;0.80;;
5999;SDS011;3028;49.468;7.694;2022-08-01T07:10:26;1.45;;;0.80;;
5999;SDS011;3028;49.468;7.694;2022-08-01T07:12:28;2.70;;;0.70;;
5999;SDS011;3028;49.468;7.694;2022-08-01T07:14:30;1.27;;;0.70;;
5999;SDS011;3028;49.468;7.694;2022-08-01T07:16:32;0.60;;;0.60;;
5999;SDS011;3028;49.468;7.694;2022-08-01T07:18:33;0.82;;;0.82;;
5999;SDS011;3028;49.468;7.694;2022-08-01T07:20:35;0.85;;;0.80;;
5999;SDS011;3028;49.468;7.694;2022-08-01T07:22:52;0.80;;;0.80;;
5999;SDS011;3028;49.468;7.694;2022-08-01T07:24:56;1.25;;;0.90;;
5999;SDS011;3028;49.468;7.694;2022-08-01T07:27:01;0.93;;;0.68;;
5999;SDS011;3028;49.468;7.694;2022-08-01T07:29:24;1.08;;;0.70;;
5999;SDS011;3028;49.468;7.694;2022-08-01T07:31:26;2.85;;;0.82;;
5999;SDS011;3028;49.468;7.694;2022-08-01T07:33:32;0.80;;;0.80;;
5999;SDS011;3028;49.468;7.694;2022-08-01T07:35:52;1.25;;;0.90;;
5999;SDS011;3028;49.468;7.694;2022-08-01T07:37:54;0.68;;;0.60;;
5999;SDS011;3028;49.468;7.694;2022-08-01T07:39:56;1.33;;;0.93;;
5999;SDS011;3028;49.468;7.694;2022-08-01T07:41:57;1.42;;;1.25;;
5999;SDS011;3028;49.468;7.694;2022-08-01T07:44:08;1.58;;;0.75;;
5999;SDS011;3028;49.468;7.694;2022-08-01T07:46:13;4.20;;;0.98;;
5999;SDS011;3028;49.468;7.694;2022-08-01T07:48:15;1.88;;;0.68;;
5999;SDS011;3028;49.468;7.694;2022-08-01T07:50:16;0.52;;;0.50;;
5999;SDS011;3028;49.468;7.694;2022-08-01T07:52:20;1.60;;;0.70;;
5999;SDS011;3028;49.468;7.694;2022-08-01T07:54:21;0.65;;;0.60;;
5999;SDS011;3028;49.468;7.694;2022-08-01T07:56:34;0.50;;;0.50;;
5999;SDS011;3028;49.468;7.694;2022-08-01T07:58:36;0.75;;;0.57;;
5999;SDS011;3028;49.468;7.694;2022-08-01T08:00:37;0.65;;;0.60;;
5999;SDS011;3028;49.468;7.694;2022-08-01T08:02:39;0.68;;;0.60;;
5999;SDS011;3028;49.468;7.694;2022-08-01T08:04:41;2.75;;;0.80;;
5999;SDS011;3028;49.468;7.694;2022-08-01T08:06:49;1.45;;;0.60;;
5999;SDS011;3028;49.468;7.694;2022-08-01T08:08:51;1.40;;;0.50;;
5999;SDS011;3028;49.468;7.694;2022-08-01T08:10:54;1.02;;;0.70;;
5999;SDS011;3028;49.468;7.694;2022-08-01T08:12:56;4.35;;;0.70;;
5999;SDS011;3028;49.468;7.694;2022-08-01T08:14:58;1.85;;;0.75;;
5999;SDS011;3028;49.468;7.694;2022-08-01T08:17:03;0.95;;;0.70;;
5999;SDS011;3028;49.468;7.694;2022-08-01T08:19:05;2.13;;;0.60;;
5999;SDS011;3028;49.468;7.694;2022-08-01T08:21:07;4.30;;;0.60;;
5999;SDS011;3028;49.468;7.694;2022-08-01T08:23:09;1.27;;;0.73;;
5999;SDS011;3028;49.468;7.694;2022-08-01T08:25:44;1.05;;;0.50;;
5999;SDS011;3028;49.468;7.694;2022-08-01T08:27:45;1.63;;;0.68;;
5999;SDS011;3028;49.468;7.694;2022-08-01T08:29:47;1.05;;;0.95;;
5999;SDS011;3028;49.468;7.694;2022-08-01T08:31:49;1.65;;;0.60;;
5999;SDS011;3028;49.468;7.694;2022-08-01T08:33:54;0.60;;;0.57;;
5999;SDS011;3028;49.468;7.694;2022-08-01T08:35:56;7.43;;;0.88;;
5999;SDS011;3028;49.468;7.694;2022-08-01T08:37:58;0.50;;;0.50;;
5999;SDS011;3028;49.468;7.694;2022-08-01T08:40:05;1.95;;;0.65;;
5999;SDS011;3028;49.468;7.694;2022-08-01T08:42:08;1.98;;;0.70;;
5999;SDS011;3028;49.468;7.694;2022-08-01T08:44:14;4.13;;;0.70;;
5999;SDS011;3028;49.468;7.694;2022-08-01T08:46:19;0.63;;;0.63;;
5999;SDS011;3028;49.468;7.694;2022-08-01T08:48:28;1.60;;;0.60;;
5999;SDS011;3028;49.468;7.694;2022-08-01T08:50:31;1.55;;;0.52;;
5999;SDS011;3028;49.468;7.694;2022-08-01T08:52:33;1.17;;;0.70;;
5999;SDS011;3028;49.468;7.694;2022-08-01T08:54:37;0.65;;;0.60;;
5999;SDS011;3028;49.468;7.694;2022-08-01T08:56:40;1.95;;;0.50;;
5999;SDS011;3028;49.468;7.694;2022-08-01T08:58:46;0.40;;;0.40;;
5999;SDS011;3028;49.468;7.694;2022-08-01T09:00:48;1.33;;;0.70;;
5999;SDS011;3028;49.468;7.694;2022-08-01T09:02:49;0.85;;;0.55;;
5999;SDS011;3028;49.468;7.694;2022-08-01T09:04:53;0.85;;;0.63;;
5999;SDS011;3028;49.468;7.694;2022-08-01T09:06:55;0.60;;;0.60;;
5999;SDS011;3028;49.468;7.694;2022-08-01T09:08:58;1.95;;;0.50;;
5999;SDS011;3028;49.468;7.694;2022-08-01T09:11:00;0.60;;;0.50;;
5999;SDS011;3028;49.468;7.694;2022-08-01T09:15:14;1.63;;;0.88;;
5999;SDS011;3028;49.468;7.694;2022-08-01T09:17:16;1.05;;;0.75;;
5999;SDS011;3028;49.468;7.694;2022-08-01T09:19:20;5.22;;;0.70;;
5999;SDS011;3028;49.468;7.694;2022-08-01T09:21:58;2.33;;;0.63;;
5999;SDS011;3028;49.468;7.694;2022-08-01T09:24:01;0.73;;;0.63;;
5999;SDS011;3028;49.468;7.694;2022-08-01T09:26:06;0.50;;;0.50;;
5999;SDS011;3028;49.468;7.694;2022-08-01T09:28:08;0.60;;;0.60;;
5999;SDS011;3028;49.468;7.694;2022-08-01T09:32:17;2.88;;;0.80;;
5999;SDS011;3028;49.468;7.694;2022-08-01T09:34:27;1.50;;;0.70;;
5999;SDS011;3028;49.468;7.694;2022-08-01T09:38:55;0.60;;;0.60;;
5999;SDS011;3028;49.468;7.694;2022-08-01T09:40:58;0.82;;;0.38;;
5999;SDS011;3028;49.468;7.694;2022-08-01T09:43:11;0.77;;;0.60;;
5999;SDS011;3028;49.468;7.694;2022-08-01T09:45:31;0.65;;;0.60;;
5999;SDS011;3028;49.468;7.694;2022-08-01T09:47:44;0.65;;;0.55;;
5999;SDS011;3028;49.468;7.694;2022-08-01T09:49:52;1.13;;;0.60;;
5999;SDS011;3028;49.468;7.694;2022-08-01T09:52:11;0.60;;;0.47;;
5999;SDS011;3028;49.468;7.694;2022-08-01T09:54:14;3.90;;;0.50;;
5999;SDS011;3028;49.468;7.694;2022-08-01T09:56:40;0.40;;;0.40;;
5999;SDS011;3028;49.468;7.694;2022-08-01T09:58:51;2.53;;;0.30;;
5999;SDS011;3028;49.468;7.694;2022-08-01T10:01:03;5.30;;;0.82;;
5999;SDS011;3028;49.468;7.694;2022-08-01T10:03:28;0.57;;;0.20;;
5999;SDS011;3028;49.468;7.694;2022-08-01T10:05:34;0.90;;;0.43;;
5999;SDS011;3028;49.468;7.694;2022-08-01T10:10:11;1.00;;;0.47;;
5999;SDS011;3028;49.468;7.694;2022-08-01T10:12:16;2.05;;;0.50;;
5999;SDS011;3028;49.468;7.694;2022-08-01T10:14:21;0.30;;;0.30;;
5999;SDS011;3028;49.468;7.694;2022-08-01T10:16:28;0.85;;;0.40;;
5999;SDS011;3028;49.468;7.694;2022-08-01T10:18:31;0.70;;;0.45;;
5999;SDS011;3028;49.468;7.694;2022-08-01T10:20:34;0.93;;;0.40;;
5999;SDS011;3028;49.468;7.694;2022-08-01T10:22:38;0.50;;;0.45;;
5999;SDS011;3028;49.468;7.694;2022-08-01T10:24:41;1.65;;;0.40;;
5999;SDS011;3028;49.468;7.694;2022-08-01T10:26:45;0.50;;;0.50;;
5999;SDS011;3028;49.468;7.694;2022-08-01T10:28:49;3.03;;;0.63;;
5999;SDS011;3028;49.468;7.694;2022-08-01T10:30:51;1.17;;;0.50;;
5999;SDS011;3028;49.468;7.694;2022-08-01T10:32:53;0.80;;;0.60;;
5999;SDS011;3028;49.468;7.694;2022-08-01T10:34:56;0.73;;;0.68;;
5999;SDS011;3028;49.468;7.694;2022-08-01T10:36:58;0.82;;;0.65;;
5999;SDS011;3028;49.468;7.694;2022-08-01T10:39:05;1.55;;;0.50;;
5999;SDS011;3028;49.468;7.694;2022-08-01T10:41:07;1.73;;;0.60;;
5999;SDS011;3028;49.468;7.694;2022-08-01T10:43:10;0.50;;;0.50;;
5999;SDS011;3028;49.468;7.694;2022-08-01T10:45:13;1.83;;;0.60;;
5999;SDS011;3028;49.468;7.694;2022-08-01T10:47:59;0.40;;;0.40;;
5999;SDS011;3028;49.468;7.694;2022-08-01T10:52:26;1.45;;;0.80;;
5999;SDS011;3028;49.468;7.694;2022-08-01T10:54:28;1.13;;;0.80;;
5999;SDS011;3028;49.468;7.694;2022-08-01T10:56:48;0.90;;;0.60;;
5999;SDS011;3028;49.468;7.694;2022-08-01T10:58:54;0.73;;;0.73;;
5999;SDS011;3028;49.468;7.694;2022-08-01T11:03:26;1.08;;;0.95;;
5999;SDS011;3028;49.468;7.694;2022-08-01T11:05:54;7.68;;;0.63;;
5999;SDS011;3028;49.468;7.694;2022-08-01T11:07:57;0.90;;;0.80;;
5999;SDS011;3028;49.468;7.694;2022-08-01T11:10:04;1.33;;;0.70;;
5999;SDS011;3028;49.468;7.694;2022-08-01T11:12:15;1.70;;;0.70;;
5999;SDS011;3028;49.468;7.694;2022-08-01T11:14:25;2.17;;;0.95;;
5999;SDS011;3028;49.468;7.694;2022-08-01T11:16:47;3.83;;;0.95;;
5999;SDS011;3028;49.468;7.694;2022-08-01T11:18:50;1.52;;;0.77;;
5999;SDS011;3028;49.468;7.694;2022-08-01T11:20:59;2.67;;;0.73;;
5999;SDS011;3028;49.468;7.694;2022-08-01T11:23:22;0.80;;;0.80;;
5999;SDS011;3028;49.468;7.694;2022-08-01T11:25:25;0.73;;;0.73;;
5999;SDS011;3028;49.468;7.694;2022-08-01T11:27:47;0.60;;;0.60;;
5999;SDS011;3028;49.468;7.694;2022-08-01T11:32:23;0.85;;;0.65;;
5999;SDS011;3028;49.468;7.694;2022-08-01T11:39:31;1.55;;;0.65;;
5999;SDS011;3028;49.468;7.694;2022-08-01T11:41:39;0.73;;;0.50;;
5999;SDS011;3028;49.468;7.694;2022-08-01T11:51:29;1.02;;;0.77;;
5999;SDS011;3028;49.468;7.694;2022-08-01T11:53:44;1.17;;;0.85;;
5999;SDS011;3028;49.468;7.694;2022-08-01T11:55:48;1.73;;;0.60;;
5999;SDS011;3028;49.468;7.694;2022-08-01T11:57:58;4.47;;;0.73;;
5999;SDS011;3028;49.468;7.694;2022-08-01T12:00:05;1.23;;;0.57;;
5999;SDS011;3028;49.468;7.694;2022-08-01T12:02:21;1.60;;;0.80;;
5999;SDS011;3028;49.468;7.694;2022-08-01T12:06:55;2.47;;;0.70;;
5999;SDS011;3028;49.468;7.694;2022-08-01T12:09:14;0.60;;;0.60;;
5999;SDS011;3028;49.468;7.694;2022-08-01T12:11:20;0.60;;;0.60;;
5999;SDS011;3028;49.468;7.694;2022-08-01T12:13:21;0.50;;;0.43;;
5999;SDS011;3028;49.468;7.694;2022-08-01T12:15:23;1.10;;;0.65;;
5999;SDS011;3028;49.468;7.694;2022-08-01T12:17:29;0.52;;;0.50;;
5999;SDS011;3028;49.468;7.694;2022-08-01T12:19:40;1.02;;;0.60;;
5999;SDS011;3028;49.468;7.694;2022-08-01T12:21:42;0.70;;;0.43;;
5999;SDS011;3028;49.468;7.694;2022-08-01T12:23:44;0.60;;;0.50;;
5999;SDS011;3028;49.468;7.694;2022-08-01T12:25:52;0.50;;;0.50;;
5999;SDS011;3028;49.468;7.694;2022-08-01T12:27:55;0.80;;;0.70;;
5999;SDS011;3028;49.468;7.694;2022-08-01T12:30:05;0.70;;;0.70;;
5999;SDS011;3028;49.468;7.694;2022-08-01T12:32:25;0.77;;;0.47;;
5999;SDS011;3028;49.468;7.694;2022-08-01T12:34:36;0.60;;;0.60;;
5999;SDS011;3028;49.468;7.694;2022-08-01T12:36:37;0.50;;;0.50;;
5999;SDS011;3028;49.468;7.694;2022-08-01T12:38:39;0.50;;;0.50;;
5999;SDS011;3028;49.468;7.694;2022-08-01T12:40:42;1.77;;;0.50;;
5999;SDS011;3028;49.468;7.694;2022-08-01T12:42:50;0.40;;;0.40;;
5999;SDS011;3028;49.468;7.694;2022-08-01T12:44:55;0.50;;;0.40;;
5999;SDS011;3028;49.468;7.694;2022-08-01T12:46:57;0.25;;;0.25;;
5999;SDS011;3028;49.468;7.694;2022-08-01T12:49:00;3.38;;;0.88;;
5999;SDS011;3028;49.468;7.694;2022-08-01T12:51:02;0.50;;;0.30;;
5999;SDS011;3028;49.468;7.694;2022-08-01T12:53:04;0.73;;;0.50;;
5999;SDS011;3028;49.468;7.694;2022-08-01T12:55:11;0.50;;;0.38;;
5999;SDS011;3028;49.468;7.694;2022-08-01T12:57:22;2.45;;;0.50;;
5999;SDS011;3028;49.468;7.694;2022-08-01T12:59:26;0.50;;;0.40;;
5999;SDS011;3028;49.468;7.694;2022-08-01T13:01:28;0.30;;;0.30;;
5999;SDS011;3028;49.468;7.694;2022-08-01T13:03:30;0.75;;;0.50;;
5999;SDS011;3028;49.468;7.694;2022-08-01T13:05:42;0.85;;;0.40;;
5999;SDS011;3028;49.468;7.694;2022-08-01T13:07:51;0.82;;;0.30;;
5999;SDS011;3028;49.468;7.694;2022-08-01T13:09:53;0.98;;;0.35;;
5999;SDS011;3028;49.468;7.694;2022-08-01T13:11:55;1.10;;;0.32;;
5999;SDS011;3028;49.468;7.694;2022-08-01T13:14:04;1.05;;;0.40;;
5999;SDS011;3028;49.468;7.694;2022-08-01T13:16:07;1.48;;;0.60;;
5999;SDS011;3028;49.468;7.694;2022-08-01T13:18:22;1.75;;;0.32;;
5999;SDS011;3028;49.468;7.694;2022-08-01T13:20:32;0.30;;;0.30;;
5999;SDS011;3028;49.468;7.694;2022-08-01T13:22:35;0.40;;;0.30;;
5999;SDS011;3028;49.468;7.694;2022-08-01T13:24:38;0.40;;;0.40;;
5999;SDS011;3028;49.468;7.694;2022-08-01T13:29:07;1.48;;;0.20;;
5999;SDS011;3028;49.468;7.694;2022-08-01T13:31:11;0.30;;;0.20;;
5999;SDS011;3028;49.468;7.694;2022-08-01T13:33:14;0.47;;;0.40;;
5999;SDS011;3028;49.468;7.694;2022-08-01T13:35:20;1.05;;;0.52;;
5999;SDS011;3028;49.468;7.694;2022-08-01T13:37:22;0.90;;;0.30;;
5999;SDS011;3028;49.468;7.694;2022-08-01T13:39:24;0.55;;;0.50;;
5999;SDS011;3028;49.468;7.694;2022-08-01T13:41:45;0.70;;;0.30;;
5999;SDS011;3028;49.468;7.694;2022-08-01T13:43:48;1.52;;;0.40;;
5999;SDS011;3028;49.468;7.694;2022-08-01T13:45:59;0.30;;;0.30;;